»·PEaware :: N1007V L52-L88

N1007V :: L52-L88

FLIGHT INFORMATION

Flight Status: Arrived
Operator: Privately registered:
United States
More flights under this callsign
Pilot: Valentin D. (2493)
Aircraft: CESSNA 172 SKYHAWK
(C172)
More flights by this aircraft type
Origin: L52 Oceano Co
United States
Destination: L88 New Cuyama
United States
More flights between these airports :: More routes between these airports
Route: FLW
File this flight plan on PilotEdge
Remarks:
Altitude:
(Current/Filed)
8,500ft
Speed:
(Current/Filed)
100kts
Departed: 15-Jan-22 01:29 AM
Arrived: 15-Jan-22 02:13 AM
Distance/Time
Traveled:
47nm/0:43
Distance/Time
To Go:
Arrived

Flight Plot

Page will automatically refresh every two minutes.


Map Options




Map Legend


Flown Route
Filed Route
Departure Airport
Arrival Airport
Navaid (VOR, NDB)
Fix

Horizontal Profiles

Position Reports

Time Latitude Longitude Heading Altitude Ground
Speed
15-Jan-22 00:55 35.102311 -120.622609 25 18ft 0kts
15-Jan-22 00:56 35.102311 -120.622609 25 18ft 0kts
15-Jan-22 00:57 35.102311 -120.622609 25 18ft 0kts
15-Jan-22 00:58 35.102311 -120.622609 25 18ft 0kts
15-Jan-22 00:59 35.102311 -120.622609 25 18ft 0kts
15-Jan-22 01:00 35.102311 -120.622609 25 18ft 0kts
15-Jan-22 01:01 35.102311 -120.622609 25 18ft 0kts
15-Jan-22 01:02 35.102311 -120.622609 25 18ft 0kts
15-Jan-22 01:03 35.102311 -120.622609 25 18ft 0kts
15-Jan-22 01:04 35.102311 -120.622609 25 18ft 0kts
15-Jan-22 01:05 35.102311 -120.622609 25 18ft 0kts
15-Jan-22 01:06 35.102311 -120.622609 25 18ft 0kts
15-Jan-22 01:07 35.102311 -120.622609 25 18ft 0kts
15-Jan-22 01:08 35.102311 -120.622609 25 18ft 0kts
15-Jan-22 01:09 35.102311 -120.622609 25 18ft 0kts
15-Jan-22 01:10 35.102311 -120.622609 25 18ft 0kts
15-Jan-22 01:11 35.102311 -120.622609 25 18ft 0kts
15-Jan-22 01:12 35.102311 -120.622609 25 18ft 0kts
15-Jan-22 01:13 35.102311 -120.622609 25 18ft 0kts
15-Jan-22 01:14 35.102311 -120.622609 25 18ft 0kts
15-Jan-22 01:15 35.102311 -120.622609 25 18ft 0kts
15-Jan-22 01:16 35.102311 -120.622609 25 18ft 0kts
15-Jan-22 01:17 35.102311 -120.622609 25 18ft 0kts
15-Jan-22 01:18 35.102311 -120.622609 25 18ft 0kts
15-Jan-22 01:19 35.102311 -120.622609 25 18ft 0kts
15-Jan-22 01:20 35.102311 -120.622609 25 18ft 0kts
15-Jan-22 01:21 35.102311 -120.622609 25 18ft 0kts
15-Jan-22 01:22 35.102311 -120.622609 25 18ft 0kts
15-Jan-22 01:23 35.102311 -120.622609 25 18ft 0kts
15-Jan-22 01:24 35.102311 -120.622609 25 18ft 0kts
15-Jan-22 01:25 35.102353 -120.622595 5 18ft 3kts
15-Jan-22 01:26 35.103398 -120.624826 298 18ft 10kts
15-Jan-22 01:27 35.103528 -120.625255 247 17ft 0kts
15-Jan-22 01:28 35.097799 -120.615544 121 212ft 80kts
15-Jan-22 01:29 35.086775 -120.591971 119 1149ft 83kts
15-Jan-22 01:30 35.076059 -120.567007 99 2048ft 81kts
15-Jan-22 01:31 35.058851 -120.545977 160 2613ft 104kts
15-Jan-22 01:32 35.041579 -120.522256 92 3145ft 100kts
15-Jan-22 01:33 35.043040 -120.487923 72 3649ft 103kts
15-Jan-22 01:34 35.062533 -120.463113 41 4296ft 97kts
15-Jan-22 01:35 35.083922 -120.447322 32 5069ft 85kts
15-Jan-22 01:36 35.106804 -120.433828 33 5608ft 99kts
15-Jan-22 01:37 35.124868 -120.412156 93 6092ft 92kts
15-Jan-22 01:38 35.123136 -120.380910 100 6612ft 92kts
15-Jan-22 01:39 35.120842 -120.350914 98 7214ft 85kts
15-Jan-22 01:40 35.119079 -120.319175 97 7497ft 108kts
15-Jan-22 01:41 35.117230 -120.286337 97 7484ft 86kts
15-Jan-22 01:42 35.115619 -120.258633 98 7508ft 81kts
15-Jan-22 01:43 35.113921 -120.229384 98 7496ft 88kts
15-Jan-22 01:44 35.112198 -120.198643 98 7491ft 85kts
15-Jan-22 01:45 35.110603 -120.171386 99 7489ft 75kts
15-Jan-22 01:46 35.109121 -120.145681 99 7519ft 82kts
15-Jan-22 01:47 35.107446 -120.116364 99 7513ft 90kts
15-Jan-22 01:48 35.105818 -120.087480 98 7487ft 77kts
15-Jan-22 01:49 35.104256 -120.061047 99 7504ft 78kts
15-Jan-22 01:50 35.102680 -120.033323 99 7508ft 85kts
15-Jan-22 01:51 35.101056 -120.005397 99 7508ft 82kts
15-Jan-22 01:52 35.099482 -119.977202 99 7504ft 85kts
15-Jan-22 01:53 35.097836 -119.949060 99 7511ft 83kts
15-Jan-22 01:54 35.096325 -119.921875 99 7507ft 78kts
15-Jan-22 01:55 35.094772 -119.894898 99 7501ft 79kts
15-Jan-22 01:56 35.092952 -119.869510 122 7411ft 65kts
15-Jan-22 01:57 35.081059 -119.851278 126 7134ft 83kts
15-Jan-22 01:58 35.065858 -119.829263 136 6556ft 80kts
15-Jan-22 01:59 35.048940 -119.811140 133 5967ft 77kts
15-Jan-22 02:00 35.033185 -119.792490 131 5440ft 85kts
15-Jan-22 02:01 35.015417 -119.770931 132 4853ft 93kts
15-Jan-22 02:02 34.997022 -119.748508 132 4225ft 94kts
15-Jan-22 02:03 34.977647 -119.724945 132 3650ft 95kts
15-Jan-22 02:04 34.960163 -119.703637 133 3222ft 80kts
15-Jan-22 02:05 34.942462 -119.705613 263 3203ft 88kts
15-Jan-22 02:06 34.937998 -119.736660 260 3196ft 97kts
15-Jan-22 02:07 34.946643 -119.748524 75 3187ft 87kts
15-Jan-22 02:08 34.945310 -119.719112 96 3192ft 92kts
15-Jan-22 02:09 34.937101 -119.689161 115 3165ft 94kts
15-Jan-22 02:10 34.927336 -119.663607 49 2764ft 88kts
15-Jan-22 02:12 34.938342 -119.681643 293 2213ft 59kts
15-Jan-22 02:13 34.942508 -119.690867 24 2151ft 3kts
15-Jan-22 02:14 34.942621 -119.690260 110 2153ft 0kts
15-Jan-22 02:15 34.942621 -119.690260 110 2153ft 0kts
15-Jan-22 02:16 34.942621 -119.690260 110 2153ft 0kts
15-Jan-22 02:17 34.942621 -119.690260 110 2153ft 0kts

Navigation Log

Ident Type
Flight plan parsing failed, navigation log unavailable